Time;durP1;ratioP1;P1;durP2;ratioP2;P2;SDS_P1;SDS_P2;PMS_P1;PMS_P2;Temp;Humidity;BMP_temperature;BMP_pressure;BME280_temperature;BME280_humidity;BME280_pressure;Samples;Min_cycle;Max_cycle;Signal;HPM_P1;HPM_P2
2022/12/03 00:00:03;;;;;;;8.93;6.65;;;;;;;;;;5032272;28;20688;-89
2022/12/03 00:02:31;;;;;;;7.15;5.30;;;;;;;;;;5032710;28;20278;-89
2022/12/03 00:04:59;;;;;;;8.40;6.25;;;;;;;;;;5032685;28;20671;-89
2022/12/03 00:07:26;;;;;;;7.68;6.32;;;;;;;;;;5032740;28;20202;-88
2022/12/03 00:09:54;;;;;;;7.32;6.13;;;;;;;;;;5046493;28;20295;-89
2022/12/03 00:12:21;;;;;;;9.82;7.05;;;;;;;;;;5052535;28;20584;-89
2022/12/03 00:14:49;;;;;;;8.75;6.13;;;;;;;;;;5052817;28;20229;-89
2022/12/03 00:17:17;;;;;;;9.20;6.40;;;;;;;;;;5052455;28;20830;-88
2022/12/03 00:19:45;;;;;;;7.43;6.18;;;;;;;;;;5051756;28;20681;-88
2022/12/03 00:22:13;;;;;;;8.90;6.97;;;;;;;;;;5052732;28;20292;-89
2022/12/03 00:24:40;;;;;;;7.40;5.80;;;;;;;;;;5052407;28;20301;-89
2022/12/03 00:27:08;;;;;;;9.77;7.03;;;;;;;;;;5052539;28;20292;-89
2022/12/03 00:29:35;;;;;;;8.65;6.47;;;;;;;;;;5052199;28;20204;-89
2022/12/03 00:32:03;;;;;;;7.78;6.30;;;;;;;;;;5052522;28;20226;-89
2022/12/03 00:34:32;;;;;;;6.90;6.05;;;;;;;;;;5052172;28;20228;-89
2022/12/03 00:37:00;;;;;;;12.52;7.90;;;;;;;;;;5052076;28;20206;-89
2022/12/03 00:39:27;;;;;;;10.70;6.97;;;;;;;;;;5052166;28;20292;-89
2022/12/03 00:41:55;;;;;;;12.25;8.38;;;;;;;;;;5054922;28;20251;-89
2022/12/03 00:44:22;;;;;;;8.25;6.38;;;;;;;;;;5056134;28;20299;-89
2022/12/03 00:46:50;;;;;;;9.73;6.97;;;;;;;;;;5055738;28;20202;-88
2022/12/03 00:49:18;;;;;;;9.40;6.90;;;;;;;;;;5055804;28;20296;-88
2022/12/03 00:51:46;;;;;;;12.27;7.95;;;;;;;;;;5055883;28;20229;-88
2022/12/03 00:54:14;;;;;;;12.90;8.40;;;;;;;;;;5055866;28;20308;-88
2022/12/03 00:56:41;;;;;;;11.35;6.78;;;;;;;;;;5055915;28;20293;-89
2022/12/03 00:59:09;;;;;;;8.57;6.85;;;;;;;;;;5055611;28;20313;-88
2022/12/03 01:01:36;;;;;;;7.55;6.40;;;;;;;;;;5055714;28;20263;-89
2022/12/03 01:04:04;;;;;;;8.00;6.47;;;;;;;;;;5055757;28;20301;-88
2022/12/03 01:06:32;;;;;;;6.00;5.20;;;;;;;;;;5055690;28;20225;-89
2022/12/03 01:09:01;;;;;;;5.80;4.93;;;;;;;;;;5055537;28;20642;-88
2022/12/03 01:11:40;;;;;;;6.18;4.95;;;;;;;;;;5055758;28;20248;-89
2022/12/03 01:14:10;;;;;;;5.25;4.70;;;;;;;;;;5055300;28;20233;-89
2022/12/03 01:16:38;;;;;;;4.30;3.88;;;;;;;;;;5055741;28;20285;-88
2022/12/03 01:19:07;;;;;;;9.25;6.45;;;;;;;;;;5054787;28;20308;-89
2022/12/03 01:21:35;;;;;;;8.57;6.18;;;;;;;;;;5055156;28;20731;-89
2022/12/03 01:24:05;;;;;;;6.10;4.88;;;;;;;;;;5055244;28;20694;-88
2022/12/03 01:26:33;;;;;;;6.45;5.28;;;;;;;;;;5055465;28;20190;-88
2022/12/03 01:29:00;;;;;;;6.13;5.13;;;;;;;;;;5055063;28;20225;-88
2022/12/03 01:34:13;;;;;;;5.22;4.72;;;;;;;;;;5054882;28;20219;-88
2022/12/03 01:36:40;;;;;;;5.80;5.18;;;;;;;;;;5054932;28;20221;-89
2022/12/03 01:39:09;;;;;;;7.25;5.18;;;;;;;;;;5054825;28;20220;-88
2022/12/03 01:41:37;;;;;;;5.68;5.13;;;;;;;;;;5054845;28;20198;-88
2022/12/03 01:44:07;;;;;;;4.95;4.18;;;;;;;;;;5054883;28;20320;-88
2022/12/03 01:46:39;;;;;;;5.40;4.38;;;;;;;;;;5054976;28;20286;-88
2022/12/03 01:49:06;;;;;;;8.55;5.40;;;;;;;;;;5054456;28;20740;-88
2022/12/03 01:51:34;;;;;;;8.57;5.28;;;;;;;;;;5054463;28;20351;-88
2022/12/03 01:54:01;;;;;;;5.63;4.65;;;;;;;;;;5054707;28;20682;-89
2022/12/03 01:56:30;;;;;;;5.63;4.78;;;;;;;;;;5054701;28;20201;-87
2022/12/03 01:58:58;;;;;;;4.75;4.10;;;;;;;;;;5054150;28;20312;-88
2022/12/03 02:01:25;;;;;;;5.47;4.97;;;;;;;;;;5054495;28;20286;-88
2022/12/03 02:03:53;;;;;;;7.20;5.43;;;;;;;;;;5054518;28;20311;-88
2022/12/03 02:06:21;;;;;;;5.25;4.35;;;;;;;;;;5054472;28;20327;-88
2022/12/03 02:08:50;;;;;;;5.03;4.53;;;;;;;;;;5054276;28;20273;-89
2022/12/03 02:11:21;;;;;;;6.78;5.25;;;;;;;;;;5054188;28;20211;-88
2022/12/03 02:13:53;;;;;;;6.65;5.03;;;;;;;;;;5054311;28;20616;-88
2022/12/03 02:16:20;;;;;;;7.93;5.13;;;;;;;;;;5054251;28;20224;-89
2022/12/03 02:18:48;;;;;;;10.57;7.28;;;;;;;;;;5053490;28;20728;-89
2022/12/03 02:21:22;;;;;;;7.18;5.20;;;;;;;;;;5054090;28;20202;-88
2022/12/03 02:23:58;;;;;;;8.95;6.78;;;;;;;;;;5054146;28;20587;-87
2022/12/03 02:26:28;;;;;;;9.00;6.10;;;;;;;;;;5054251;28;20181;-88
2022/12/03 02:28:56;;;;;;;7.57;6.32;;;;;;;;;;5053901;28;20201;-88
2022/12/03 02:31:24;;;;;;;7.97;5.72;;;;;;;;;;5054095;28;20284;-88
2022/12/03 02:33:52;;;;;;;8.30;5.70;;;;;;;;;;5053972;28;20307;-88
2022/12/03 02:36:19;;;;;;;7.53;5.20;;;;;;;;;;5053895;28;20233;-88
2022/12/03 02:38:49;;;;;;;6.20;5.60;;;;;;;;;;5054009;28;20232;-88
2022/12/03 02:44:01;;;;;;;7.93;5.90;;;;;;;;;;5052536;28;20755;-88
2022/12/03 02:46:29;;;;;;;7.18;5.25;;;;;;;;;;5053655;28;20251;-87
2022/12/03 02:48:57;;;;;;;6.05;5.13;;;;;;;;;;5053632;28;20201;-88
2022/12/03 02:51:25;;;;;;;9.40;6.22;;;;;;;;;;5053647;28;20340;-88
2022/12/03 02:53:54;;;;;;;7.45;6.10;;;;;;;;;;5053557;28;20249;-86
2022/12/03 02:56:25;;;;;;;8.63;5.95;;;;;;;;;;5053422;28;20610;-89
2022/12/03 02:58:56;;;;;;;6.70;5.03;;;;;;;;;;5053241;28;20308;-88
2022/12/03 03:01:25;;;;;;;7.43;5.72;;;;;;;;;;5053261;28;20230;-87
2022/12/03 03:03:53;;;;;;;7.45;5.65;;;;;;;;;;5052661;28;20225;-88
2022/12/03 03:06:21;;;;;;;6.63;5.28;;;;;;;;;;5053370;28;20205;-88
2022/12/03 03:08:49;;;;;;;6.97;5.50;;;;;;;;;;5052943;28;20284;-89
2022/12/03 03:11:17;;;;;;;7.90;6.10;;;;;;;;;;5053132;28;20205;-88
2022/12/03 03:13:45;;;;;;;7.25;5.88;;;;;;;;;;5052988;28;20308;-88
2022/12/03 03:16:12;;;;;;;12.02;8.15;;;;;;;;;;5053332;28;20276;-88
2022/12/03 03:18:41;;;;;;;8.38;7.55;;;;;;;;;;5052262;28;20228;-88
2022/12/03 03:21:09;;;;;;;6.75;5.07;;;;;;;;;;5052967;28;20240;-88
2022/12/03 03:23:36;;;;;;;6.03;5.35;;;;;;;;;;5053102;28;20305;-88
2022/12/03 03:26:06;;;;;;;5.88;5.07;;;;;;;;;;5052604;28;20233;-88
2022/12/03 03:28:37;;;;;;;6.60;5.68;;;;;;;;;;5052785;28;20380;-88
2022/12/03 03:31:07;;;;;;;5.82;5.00;;;;;;;;;;5052921;28;20277;-87
2022/12/03 03:33:35;;;;;;;6.45;4.43;;;;;;;;;;5052403;28;20731;-88
2022/12/03 03:36:04;;;;;;;6.45;5.15;;;;;;;;;;5052767;28;20202;-88
2022/12/03 03:38:32;;;;;;;6.75;5.75;;;;;;;;;;5052502;28;20244;-88
2022/12/03 03:41:01;;;;;;;7.18;5.93;;;;;;;;;;5052559;28;20708;-88
2022/12/03 03:43:32;;;;;;;8.45;6.00;;;;;;;;;;5052495;28;20222;-89
2022/12/03 03:46:00;;;;;;;12.98;8.48;;;;;;;;;;5052843;28;20190;-87
2022/12/03 03:48:27;;;;;;;11.63;8.82;;;;;;;;;;5052713;28;20327;-89
2022/12/03 03:50:55;;;;;;;12.45;8.52;;;;;;;;;;5052864;28;20197;-88
2022/12/03 03:53:24;;;;;;;9.98;7.45;;;;;;;;;;5052367;28;20226;-88
2022/12/03 03:55:51;;;;;;;8.88;7.38;;;;;;;;;;5052631;28;20312;-88
2022/12/03 03:58:19;;;;;;;8.90;6.90;;;;;;;;;;5052400;28;20351;-89
2022/12/03 04:00:47;;;;;;;7.45;6.70;;;;;;;;;;5052114;28;20372;-88
2022/12/03 04:03:14;;;;;;;8.50;7.30;;;;;;;;;;5052536;28;20661;-88
2022/12/03 04:05:42;;;;;;;8.80;7.13;;;;;;;;;;5052678;28;20211;-89
2022/12/03 04:08:09;;;;;;;8.75;7.63;;;;;;;;;;5052312;28;20316;-88
2022/12/03 04:13:35;;;;;;;9.00;6.57;;;;;;;;;;5010251;28;20223;-88
2022/12/03 04:16:02;;;;;;;10.25;7.68;;;;;;;;;;5043911;28;20287;-88
2022/12/03 04:18:45;;;;;;;9.25;7.60;;;;;;;;;;5055441;28;20700;-89
2022/12/03 04:23:59;;;;;;;13.38;9.35;;;;;;;;;;5056131;28;20304;-88
2022/12/03 04:29:13;;;;;;;9.32;7.45;;;;;;;;;;5056142;28;20564;-88
2022/12/03 04:37:11;;;;;;;10.52;7.60;;;;;;;;;;5055912;28;20251;-88
2022/12/03 04:39:39;;;;;;;11.25;7.60;;;;;;;;;;5055994;28;20316;-88
2022/12/03 04:42:08;;;;;;;9.13;6.85;;;;;;;;;;5055969;28;20228;-89
2022/12/03 04:44:36;;;;;;;12.20;9.30;;;;;;;;;;5056002;28;20363;-88
2022/12/03 04:47:08;;;;;;;11.25;7.80;;;;;;;;;;5055911;28;20284;-88
2022/12/03 04:49:37;;;;;;;10.73;7.95;;;;;;;;;;5055387;28;20288;-88
2022/12/03 04:52:05;;;;;;;9.38;8.02;;;;;;;;;;5055783;28;20232;-88
2022/12/03 04:54:32;;;;;;;14.38;9.30;;;;;;;;;;5055801;28;20308;-88
2022/12/03 04:57:00;;;;;;;10.32;8.23;;;;;;;;;;5055796;28;20204;-89
2022/12/03 04:59:29;;;;;;;12.25;9.30;;;;;;;;;;5055389;28;20292;-88
2022/12/03 05:01:57;;;;;;;9.05;7.45;;;;;;;;;;5055758;28;20202;-88
2022/12/03 05:04:25;;;;;;;7.80;5.97;;;;;;;;;;5055607;28;20302;-88
2022/12/03 05:06:52;;;;;;;9.25;7.40;;;;;;;;;;5055546;28;20232;-88
2022/12/03 05:09:20;;;;;;;11.65;8.43;;;;;;;;;;5055207;28;20201;-87
2022/12/03 05:11:48;;;;;;;12.13;9.52;;;;;;;;;;5055548;28;20197;-88
2022/12/03 05:14:15;;;;;;;11.40;9.27;;;;;;;;;;5055076;28;20232;-88
2022/12/03 05:16:44;;;;;;;12.40;8.60;;;;;;;;;;5055191;28;20662;-88
2022/12/03 05:19:11;;;;;;;13.27;8.93;;;;;;;;;;5054863;28;20293;-88
2022/12/03 05:21:38;;;;;;;11.82;8.07;;;;;;;;;;5054771;28;20316;-88
2022/12/03 05:24:06;;;;;;;11.15;8.30;;;;;;;;;;5055277;28;20222;-88
2022/12/03 05:26:34;;;;;;;12.60;8.95;;;;;;;;;;5054619;28;20201;-88
2022/12/03 05:29:02;;;;;;;12.52;9.80;;;;;;;;;;5054986;28;20684;-89
2022/12/03 05:31:29;;;;;;;10.35;8.57;;;;;;;;;;5055155;28;20225;-88
2022/12/03 05:33:58;;;;;;;14.38;9.65;;;;;;;;;;5055106;28;20217;-88
2022/12/03 05:36:26;;;;;;;13.02;9.77;;;;;;;;;;5054949;28;20652;-88
2022/12/03 05:38:53;;;;;;;13.32;9.50;;;;;;;;;;5055004;28;20289;-88
2022/12/03 05:44:06;;;;;;;11.32;8.07;;;;;;;;;;5054848;28;20229;-83
2022/12/03 05:46:33;;;;;;;9.95;7.30;;;;;;;;;;5055545;28;20696;-83
2022/12/03 05:49:02;;;;;;;12.52;9.80;;;;;;;;;;5054634;28;20197;-84
2022/12/03 05:51:29;;;;;;;16.80;10.20;;;;;;;;;;5055941;28;20262;-84
2022/12/03 05:53:57;;;;;;;13.07;9.70;;;;;;;;;;5055015;28;20352;-83
2022/12/03 05:56:24;;;;;;;13.50;9.63;;;;;;;;;;5054415;28;20287;-84
2022/12/03 05:58:52;;;;;;;13.70;9.52;;;;;;;;;;5054926;28;20293;-84
2022/12/03 06:01:19;;;;;;;14.63;10.07;;;;;;;;;;5054877;28;20597;-83
2022/12/03 06:03:47;;;;;;;13.10;8.68;;;;;;;;;;5054256;28;20217;-83
2022/12/03 06:06:15;;;;;;;12.68;8.60;;;;;;;;;;5055174;28;20202;-84
2022/12/03 06:08:43;;;;;;;14.10;10.57;;;;;;;;;;5054320;28;20648;-83
2022/12/03 06:11:10;;;;;;;16.02;10.43;;;;;;;;;;5054293;28;20288;-83
2022/12/03 06:13:38;;;;;;;13.75;9.70;;;;;;;;;;5054350;28;20397;-83
2022/12/03 06:16:06;;;;;;;11.23;8.50;;;;;;;;;;5053836;28;20362;-83
2022/12/03 06:18:33;;;;;;;13.07;9.43;;;;;;;;;;5054001;28;20201;-83
2022/12/03 06:21:00;;;;;;;13.15;9.20;;;;;;;;;;5054041;28;20222;-82
2022/12/03 06:23:29;;;;;;;10.73;8.98;;;;;;;;;;5054190;28;20221;-83
2022/12/03 06:25:57;;;;;;;12.32;8.85;;;;;;;;;;5053754;28;20205;-82
2022/12/03 06:28:24;;;;;;;11.05;8.95;;;;;;;;;;5054565;28;20288;-83
2022/12/03 06:30:52;;;;;;;12.88;8.63;;;;;;;;;;5054737;28;20316;-85
2022/12/03 06:33:19;;;;;;;10.73;9.32;;;;;;;;;;5065183;28;20307;-84
2022/12/03 06:35:46;;;;;;;11.77;7.70;;;;;;;;;;5074335;28;20288;-83
2022/12/03 06:38:14;;;;;;;8.73;7.80;;;;;;;;;;5071880;28;20213;-82
2022/12/03 06:40:43;;;;;;;10.40;7.53;;;;;;;;;;5054149;28;20232;-84
2022/12/03 06:43:10;;;;;;;13.15;9.65;;;;;;;;;;5054506;28;20359;-84
2022/12/03 06:45:38;;;;;;;11.07;7.68;;;;;;;;;;5054335;28;20216;-83
2022/12/03 06:48:06;;;;;;;9.63;7.18;;;;;;;;;;5053810;28;20289;-84
2022/12/03 06:50:33;;;;;;;14.38;9.48;;;;;;;;;;5053651;28;20289;-84
2022/12/03 06:53:01;;;;;;;12.93;9.27;;;;;;;;;;5053476;28;20317;-84
2022/12/03 06:55:28;;;;;;;10.77;8.20;;;;;;;;;;5053902;28;20220;-84
2022/12/03 06:57:57;;;;;;;13.90;9.43;;;;;;;;;;5052799;28;20352;-84
2022/12/03 07:00:25;;;;;;;16.00;9.48;;;;;;;;;;5052025;28;20259;-83
2022/12/03 07:02:55;;;;;;;13.13;10.20;;;;;;;;;;5053881;28;20610;-84
2022/12/03 07:05:22;;;;;;;13.95;9.05;;;;;;;;;;5054093;28;20288;-84
2022/12/03 07:07:50;;;;;;;17.73;11.20;;;;;;;;;;5054342;28;20279;-85
2022/12/03 07:10:18;;;;;;;14.57;10.27;;;;;;;;;;5055609;28;20672;-85
2022/12/03 07:12:46;;;;;;;11.75;7.85;;;;;;;;;;5073389;28;20216;-84
2022/12/03 07:15:15;;;;;;;10.27;8.07;;;;;;;;;;5075306;28;20225;-84
2022/12/03 07:17:42;;;;;;;10.38;7.55;;;;;;;;;;5073332;28;20262;-84
2022/12/03 07:20:11;;;;;;;14.52;8.65;;;;;;;;;;5073876;28;20291;-86
2022/12/03 07:22:38;;;;;;;10.48;7.63;;;;;;;;;;5073826;28;20224;-86
2022/12/03 07:25:07;;;;;;;13.30;8.82;;;;;;;;;;5075175;28;20309;-85
2022/12/03 07:27:35;;;;;;;10.98;8.50;;;;;;;;;;5076201;28;20260;-83
2022/12/03 07:30:03;;;;;;;10.88;9.07;;;;;;;;;;5075198;28;20280;-85
2022/12/03 07:32:31;;;;;;;10.90;8.30;;;;;;;;;;5076262;28;20292;-85
2022/12/03 07:35:01;;;;;;;12.35;9.55;;;;;;;;;;5076383;28;20738;-83
2022/12/03 07:37:29;;;;;;;8.88;7.40;;;;;;;;;;5075290;28;20209;-85
2022/12/03 07:39:56;;;;;;;14.00;8.73;;;;;;;;;;5060787;28;20269;-85
2022/12/03 07:42:24;;;;;;;11.50;9.13;;;;;;;;;;5054718;28;20232;-84
2022/12/03 07:44:51;;;;;;;11.95;8.52;;;;;;;;;;5055048;28;20253;-84
2022/12/03 07:47:19;;;;;;;13.60;11.20;;;;;;;;;;5054422;28;20284;-83
2022/12/03 07:49:48;;;;;;;12.23;9.57;;;;;;;;;;5053360;28;20355;-84
2022/12/03 07:52:15;;;;;;;16.80;9.80;;;;;;;;;;5054874;28;20288;-84
2022/12/03 07:54:43;;;;;;;14.80;10.25;;;;;;;;;;5055145;28;20313;-84
2022/12/03 07:57:10;;;;;;;15.98;10.70;;;;;;;;;;5054550;28;20340;-83
2022/12/03 07:59:38;;;;;;;14.35;9.80;;;;;;;;;;5054272;28;20288;-83
2022/12/03 08:02:05;;;;;;;15.43;10.43;;;;;;;;;;5053121;28;20217;-83
2022/12/03 08:04:32;;;;;;;12.32;9.23;;;;;;;;;;5053351;28;20701;-84
2022/12/03 08:07:01;;;;;;;12.23;8.75;;;;;;;;;;5053954;28;20203;-84
2022/12/03 08:09:30;;;;;;;10.98;8.45;;;;;;;;;;5053599;28;20212;-84
2022/12/03 08:12:00;;;;;;;11.18;8.15;;;;;;;;;;5053918;28;20200;-84
2022/12/03 08:14:29;;;;;;;14.70;11.25;;;;;;;;;;5053870;28;20285;-83
2022/12/03 08:16:56;;;;;;;15.00;9.43;;;;;;;;;;5053622;28;20197;-82
2022/12/03 08:19:25;;;;;;;11.80;9.43;;;;;;;;;;5054482;28;20284;-83
2022/12/03 08:21:52;;;;;;;12.55;9.75;;;;;;;;;;5055807;28;20225;-82
2022/12/03 08:24:22;;;;;;;10.65;8.38;;;;;;;;;;5057421;28;20260;-84
2022/12/03 08:26:50;;;;;;;13.40;9.30;;;;;;;;;;5056190;28;20283;-84
2022/12/03 08:29:20;;;;;;;12.55;8.77;;;;;;;;;;5056907;28;20673;-83
2022/12/03 08:31:50;;;;;;;14.52;10.10;;;;;;;;;;5057851;28;20265;-83
2022/12/03 08:34:20;;;;;;;17.42;11.38;;;;;;;;;;5057937;28;20282;-83
2022/12/03 08:36:48;;;;;;;17.23;10.93;;;;;;;;;;5057437;28;20301;-82
2022/12/03 08:39:29;;;;;;;18.52;11.98;;;;;;;;;;5057280;28;20622;-83
2022/12/03 08:44:47;;;;;;;12.65;9.65;;;;;;;;;;5055579;28;20255;-82
2022/12/03 08:47:19;;;;;;;15.48;11.75;;;;;;;;;;5055856;28;20292;-84
2022/12/03 08:49:50;;;;;;;14.95;10.00;;;;;;;;;;5055266;28;20265;-83
2022/12/03 08:52:21;;;;;;;19.75;11.63;;;;;;;;;;5054871;28;20193;-82
2022/12/03 08:54:53;;;;;;;16.88;11.05;;;;;;;;;;5055396;28;20218;-82
2022/12/03 08:57:28;;;;;;;17.95;12.63;;;;;;;;;;5055115;28;20300;-82
2022/12/03 09:00:00;;;;;;;18.52;12.82;;;;;;;;;;5054218;28;20661;-82
2022/12/03 09:02:32;;;;;;;17.17;11.23;;;;;;;;;;5056936;28;20608;-81
2022/12/03 09:05:02;;;;;;;16.70;11.40;;;;;;;;;;5057727;28;20202;-82
2022/12/03 09:07:30;;;;;;;15.88;11.55;;;;;;;;;;5057951;28;20748;-82
2022/12/03 09:09:59;;;;;;;17.35;12.93;;;;;;;;;;5057501;28;20752;-82
2022/12/03 09:12:26;;;;;;;14.68;9.57;;;;;;;;;;5057932;28;20359;-83
2022/12/03 09:14:53;;;;;;;15.88;11.65;;;;;;;;;;5058163;28;20364;-82
2022/12/03 09:17:21;;;;;;;16.33;10.70;;;;;;;;;;5057773;28;20616;-82
2022/12/03 09:19:48;;;;;;;19.02;12.32;;;;;;;;;;5057660;28;20292;-82
2022/12/03 09:22:16;;;;;;;15.20;11.38;;;;;;;;;;5057492;28;20312;-82
2022/12/03 09:24:43;;;;;;;15.10;10.45;;;;;;;;;;5057339;28;20275;-82
2022/12/03 09:27:12;;;;;;;16.73;11.55;;;;;;;;;;5057968;28;20294;-82
2022/12/03 09:29:39;;;;;;;12.45;9.73;;;;;;;;;;5057084;28;20289;-83
2022/12/03 09:32:07;;;;;;;11.40;9.20;;;;;;;;;;5058935;28;20339;-83
2022/12/03 09:34:34;;;;;;;13.90;9.65;;;;;;;;;;5058378;28;20359;-82
2022/12/03 09:37:02;;;;;;;11.85;9.13;;;;;;;;;;5059435;28;20304;-85
2022/12/03 09:39:29;;;;;;;11.75;10.23;;;;;;;;;;5061382;28;20294;-83
2022/12/03 09:41:57;;;;;;;13.23;9.63;;;;;;;;;;5057183;28;20212;-83
2022/12/03 09:44:28;;;;;;;15.10;10.23;;;;;;;;;;5057128;28;20225;-83
2022/12/03 09:46:58;;;;;;;11.13;8.32;;;;;;;;;;5057664;28;20297;-84
2022/12/03 09:49:27;;;;;;;10.02;8.23;;;;;;;;;;5058156;28;20202;-84
2022/12/03 09:51:57;;;;;;;14.15;10.63;;;;;;;;;;5057404;28;20202;-83
2022/12/03 09:54:27;;;;;;;11.65;9.20;;;;;;;;;;5057875;28;20220;-84
2022/12/03 09:56:57;;;;;;;17.58;11.88;;;;;;;;;;5058668;28;20233;-84
2022/12/03 09:59:30;;;;;;;18.65;11.75;;;;;;;;;;5057819;28;20318;-82
2022/12/03 10:01:58;;;;;;;13.40;9.40;;;;;;;;;;5056172;28;20217;-82
2022/12/03 10:04:26;;;;;;;13.30;9.23;;;;;;;;;;5054785;28;20279;-81
2022/12/03 10:06:54;;;;;;;12.27;8.75;;;;;;;;;;5056078;28;20288;-82
2022/12/03 10:09:26;;;;;;;16.33;11.57;;;;;;;;;;5056395;28;20288;-83
2022/12/03 10:11:54;;;;;;;15.90;10.25;;;;;;;;;;5057270;28;20307;-83
2022/12/03 10:14:22;;;;;;;12.90;8.55;;;;;;;;;;5057493;28;20218;-82
2022/12/03 10:16:51;;;;;;;8.65;7.00;;;;;;;;;;5057819;28;20587;-83
2022/12/03 10:19:22;;;;;;;11.30;9.13;;;;;;;;;;5058179;28;20296;-83
2022/12/03 10:21:49;;;;;;;15.60;11.30;;;;;;;;;;5057081;28;20209;-84
2022/12/03 10:24:27;;;;;;;16.00;11.20;;;;;;;;;;5058000;28;20330;-83
2022/12/03 10:26:58;;;;;;;11.35;7.72;;;;;;;;;;5057689;28;20696;-82
2022/12/03 10:29:27;;;;;;;10.98;7.88;;;;;;;;;;5056818;28;20269;-82
2022/12/03 10:32:00;;;;;;;10.98;9.50;;;;;;;;;;5056630;28;20236;-83
2022/12/03 10:34:30;;;;;;;12.23;9.13;;;;;;;;;;5056770;28;20222;-82
2022/12/03 10:37:17;;;;;;;12.48;10.18;;;;;;;;;;5056331;28;20691;-83
2022/12/03 10:39:58;;;;;;;11.88;8.63;;;;;;;;;;5056553;28;20706;-83
2022/12/03 10:42:27;;;;;;;12.75;9.65;;;;;;;;;;5056978;28;20336;-83
2022/12/03 10:45:17;;;;;;;9.98;7.75;;;;;;;;;;5058840;28;20222;-83
2022/12/03 10:48:05;;;;;;;11.25;8.52;;;;;;;;;;5056145;28;20729;-83
2022/12/03 10:50:33;;;;;;;11.52;9.38;;;;;;;;;;5056717;28;20589;-81
2022/12/03 10:53:00;;;;;;;15.70;10.30;;;;;;;;;;5055121;28;20221;-82
2022/12/03 10:55:29;;;;;;;16.75;11.90;;;;;;;;;;5054917;28;20296;-82
2022/12/03 10:57:57;;;;;;;14.93;10.90;;;;;;;;;;5051582;28;20290;-84
2022/12/03 11:00:24;;;;;;;17.25;10.68;;;;;;;;;;5063548;28;20227;-83
2022/12/03 11:02:53;;;;;;;15.20;11.32;;;;;;;;;;5058339;28;20273;-84
2022/12/03 11:05:26;;;;;;;12.63;9.88;;;;;;;;;;5050266;28;20222;-84
2022/12/03 11:08:17;;;;;;;10.52;8.10;;;;;;;;;;5008288;28;20305;-83
2022/12/03 11:10:45;;;;;;;13.65;9.48;;;;;;;;;;5054191;28;20300;-84
2022/12/03 11:13:45;;;;;;;15.55;10.77;;;;;;;;;;5053963;28;20223;-84
2022/12/03 11:16:13;;;;;;;13.85;10.95;;;;;;;;;;5051417;28;20194;-84
2022/12/03 11:19:01;;;;;;;14.98;11.13;;;;;;;;;;5057415;28;20234;-84
2022/12/03 11:21:32;;;;;;;19.98;12.38;;;;;;;;;;5055613;28;20292;-84
2022/12/03 11:24:20;;;;;;;18.27;12.02;;;;;;;;;;5054216;28;20367;-83
2022/12/03 11:27:13;;;;;;;15.50;11.32;;;;;;;;;;5053705;28;20240;-84
2022/12/03 11:29:55;;;;;;;15.27;11.77;;;;;;;;;;5056399;28;20246;-83
2022/12/03 11:32:59;;;;;;;18.50;12.07;;;;;;;;;;5055387;28;20672;-84
2022/12/03 11:35:52;;;;;;;20.23;12.13;;;;;;;;;;5056029;28;20224;-81
2022/12/03 11:38:51;;;;;;;16.45;10.25;;;;;;;;;;5054938;28;20242;-83
2022/12/03 11:41:21;;;;;;;17.10;12.73;;;;;;;;;;5050419;28;20281;-84
2022/12/03 11:44:31;;;;;;;16.75;11.55;;;;;;;;;;5054215;28;20238;-83
2022/12/03 11:47:01;;;;;;;22.75;12.77;;;;;;;;;;5055156;28;20197;-83
2022/12/03 11:49:37;;;;;;;18.98;12.70;;;;;;;;;;5052679;28;20208;-84
2022/12/03 11:52:25;;;;;;;17.85;12.55;;;;;;;;;;5051164;28;20256;-84
2022/12/03 11:55:00;;;;;;;16.13;11.93;;;;;;;;;;5055841;28;20221;-83
2022/12/03 11:57:37;;;;;;;16.25;11.43;;;;;;;;;;5057834;28;20224;-83
2022/12/03 12:00:25;;;;;;;18.95;11.90;;;;;;;;;;5057180;28;20743;-82
2022/12/03 12:02:56;;;;;;;10.50;7.93;;;;;;;;;;5053522;28;20286;-82
2022/12/03 12:05:28;;;;;;;15.82;10.85;;;;;;;;;;5053972;28;20222;-83
2022/12/03 12:07:57;;;;;;;19.40;13.98;;;;;;;;;;5054976;28;20637;-82
2022/12/03 12:10:46;;;;;;;13.77;10.10;;;;;;;;;;5054761;28;20206;-83
2022/12/03 12:13:54;;;;;;;14.35;9.60;;;;;;;;;;5050576;28;20301;-83
2022/12/03 12:16:42;;;;;;;12.80;8.85;;;;;;;;;;5048837;28;20202;-83
2022/12/03 12:19:38;;;;;;;13.57;9.70;;;;;;;;;;5054746;28;20198;-83
2022/12/03 12:22:28;;;;;;;12.10;8.18;;;;;;;;;;5041888;28;20647;-83
2022/12/03 12:24:58;;;;;;;10.85;7.55;;;;;;;;;;5054465;28;20288;-86
2022/12/03 12:27:33;;;;;;;8.40;6.85;;;;;;;;;;5057195;28;20297;-85
2022/12/03 12:30:04;;;;;;;12.40;8.77;;;;;;;;;;5056781;28;20282;-84
2022/12/03 12:32:33;;;;;;;11.20;9.00;;;;;;;;;;5054833;28;20229;-86
2022/12/03 12:35:13;;;;;;;14.02;10.70;;;;;;;;;;5056965;28;20233;-86
2022/12/03 12:37:47;;;;;;;14.80;10.52;;;;;;;;;;5058847;28;20292;-85
2022/12/03 12:40:19;;;;;;;13.82;10.02;;;;;;;;;;5060868;28;20656;-85
2022/12/03 12:42:51;;;;;;;15.82;11.70;;;;;;;;;;5058741;28;20205;-84
2022/12/03 12:45:22;;;;;;;19.05;12.10;;;;;;;;;;5052631;28;20237;-85
2022/12/03 12:47:57;;;;;;;16.15;11.40;;;;;;;;;;5058499;28;20689;-85
2022/12/03 12:50:25;;;;;;;15.95;10.05;;;;;;;;;;5056814;28;20688;-84
2022/12/03 12:52:58;;;;;;;14.25;11.88;;;;;;;;;;5059110;28;20347;-85
2022/12/03 12:55:27;;;;;;;13.05;9.40;;;;;;;;;;5061262;28;20281;-85
2022/12/03 12:57:56;;;;;;;14.52;10.65;;;;;;;;;;5058831;28;20205;-85
2022/12/03 13:00:24;;;;;;;15.57;9.70;;;;;;;;;;5059569;28;20234;-85
2022/12/03 13:02:56;;;;;;;12.98;10.15;;;;;;;;;;5058051;28;20284;-86
2022/12/03 13:05:26;;;;;;;10.35;7.95;;;;;;;;;;5059891;28;20268;-85
2022/12/03 13:07:55;;;;;;;15.65;10.85;;;;;;;;;;5059413;28;20197;-86
2022/12/03 13:10:36;;;;;;;15.07;11.00;;;;;;;;;;5057498;28;20673;-86
2022/12/03 13:13:21;;;;;;;16.50;10.48;;;;;;;;;;5058793;28;20225;-88
2022/12/03 13:15:53;;;;;;;16.98;11.18;;;;;;;;;;5058732;28;20217;-85
2022/12/03 13:18:41;;;;;;;10.65;8.15;;;;;;;;;;5058838;28;20197;-85
2022/12/03 13:21:25;;;;;;;15.13;11.52;;;;;;;;;;5057755;28;20208;-85
2022/12/03 13:23:55;;;;;;;15.40;12.40;;;;;;;;;;5058118;28;20304;-86
2022/12/03 13:26:27;;;;;;;16.08;11.40;;;;;;;;;;5059102;28;20280;-86
2022/12/03 13:28:56;;;;;;;11.23;9.65;;;;;;;;;;5059658;28;20694;-85
2022/12/03 13:31:28;;;;;;;13.02;9.57;;;;;;;;;;5056035;28;20662;-85
2022/12/03 13:33:56;;;;;;;12.88;8.95;;;;;;;;;;5059154;28;20336;-85
2022/12/03 13:36:39;;;;;;;11.45;7.63;;;;;;;;;;5059446;28;20258;-83
2022/12/03 13:39:16;;;;;;;15.48;11.20;;;;;;;;;;5058611;28;20211;-85
2022/12/03 13:44:31;;;;;;;15.52;9.98;;;;;;;;;;5058583;28;20595;-84
2022/12/03 13:47:01;;;;;;;11.25;9.32;;;;;;;;;;5059358;28;20201;-85
2022/12/03 13:49:30;;;;;;;10.25;8.35;;;;;;;;;;5058734;28;20208;-85
2022/12/03 13:51:57;;;;;;;14.77;10.98;;;;;;;;;;5056279;28;20193;-86
2022/12/03 13:54:28;;;;;;;17.00;12.13;;;;;;;;;;5059174;28;20304;-85
2022/12/03 13:56:59;;;;;;;18.15;11.07;;;;;;;;;;5056742;28;20289;-83
2022/12/03 13:59:26;;;;;;;16.27;10.30;;;;;;;;;;5057190;28;20284;-85
2022/12/03 14:01:53;;;;;;;12.15;8.63;;;;;;;;;;5055286;28;20281;-86
2022/12/03 14:04:21;;;;;;;9.98;7.90;;;;;;;;;;5058201;28;20238;-84
2022/12/03 14:06:48;;;;;;;13.77;9.75;;;;;;;;;;5058019;28;20230;-84
2022/12/03 14:09:16;;;;;;;11.82;8.52;;;;;;;;;;5052260;28;20229;-85
2022/12/03 14:14:30;;;;;;;13.07;9.00;;;;;;;;;;5056215;28;20652;-85
2022/12/03 14:16:57;;;;;;;11.27;8.45;;;;;;;;;;5056124;28;20201;-85
2022/12/03 14:19:25;;;;;;;12.07;9.13;;;;;;;;;;5057103;28;20261;-86
2022/12/03 14:21:52;;;;;;;8.10;6.80;;;;;;;;;;5054907;28;20265;-85
2022/12/03 14:24:20;;;;;;;11.00;8.25;;;;;;;;;;5057188;28;20316;-85
2022/12/03 14:26:47;;;;;;;12.85;9.10;;;;;;;;;;5057433;28;20249;-85
2022/12/03 14:29:14;;;;;;;12.52;10.02;;;;;;;;;;5053157;28;20257;-86
2022/12/03 14:31:43;;;;;;;11.95;9.20;;;;;;;;;;5042804;28;20230;-86
2022/12/03 14:34:11;;;;;;;13.27;9.40;;;;;;;;;;5058878;28;20213;-85
2022/12/03 14:36:39;;;;;;;14.93;9.95;;;;;;;;;;5055491;28;20641;-85
2022/12/03 14:39:06;;;;;;;21.92;14.30;;;;;;;;;;5054541;28;20212;-85
2022/12/03 14:44:20;;;;;;;16.63;12.07;;;;;;;;;;5056418;28;20216;-85
2022/12/03 14:46:49;;;;;;;18.60;13.02;;;;;;;;;;5058851;28;20599;-83
2022/12/03 14:49:17;;;;;;;14.50;10.15;;;;;;;;;;5057796;28;20285;-85
2022/12/03 14:51:45;;;;;;;12.65;9.50;;;;;;;;;;5058719;28;20209;-85
2022/12/03 14:54:12;;;;;;;16.83;11.20;;;;;;;;;;5052225;28;20300;-85
2022/12/03 14:56:40;;;;;;;13.88;9.63;;;;;;;;;;5059367;28;20621;-85
2022/12/03 14:59:07;;;;;;;14.15;9.07;;;;;;;;;;5056168;28;20262;-85
2022/12/03 15:01:35;;;;;;;17.77;12.88;;;;;;;;;;5056023;28;20289;-84
2022/12/03 15:04:04;;;;;;;16.65;11.20;;;;;;;;;;5049125;28;20638;-84
2022/12/03 15:06:32;;;;;;;15.77;11.82;;;;;;;;;;5058801;28;20248;-85
2022/12/03 15:08:59;;;;;;;14.20;10.57;;;;;;;;;;5059039;28;20201;-86
2022/12/03 15:11:27;;;;;;;18.02;11.20;;;;;;;;;;5056867;28;20211;-85
2022/12/03 15:13:54;;;;;;;12.00;8.55;;;;;;;;;;5055855;28;20222;-85
2022/12/03 15:16:22;;;;;;;9.95;7.43;;;;;;;;;;5057450;28;20189;-85
2022/12/03 15:18:50;;;;;;;12.55;9.88;;;;;;;;;;5053324;28;20236;-84
2022/12/03 15:21:19;;;;;;;13.63;10.90;;;;;;;;;;5055809;28;20641;-84